• Join FlightAware (Why Join?)
  • Login
  • US Flag 
12:45AM EDT


 

Airport Tracker/Info


-or-


 

Live Flight TrackerFlight Track Log ✈ N589H ✈ 10-Jul-2014 ✈ KPBI - KHEF

Flight Track Log - Related Links

Times and Time Zones

All times are in EDT time to prevent confusion due to time zone crossing. See the N589H flight status page for this flight to view local times or setup timezone preferences in your user account.

Time Position Orientation Groundspeed Altitude Reporting Facility
EDT Latitude Longitude Course Direction KTS MPH feet Rate Location/Type
09:32AM 26.7397 -80.2219 50° Northeast 195 224 4,300  Level Miami Center
09:33AM 26.7836 -80.1967 27° Northeast 176 203 6,200 1,860 Climbing Miami Center
09:34AM 26.8072 -80.1436 63° Northeast 190 219 8,200 1,560 Climbing Miami Center
09:35AM 26.8167 -80.0764 81° East 207 238 9,400 1,200 Climbing Miami Center
09:36AM 26.8242 -79.9975 84° East 240 276 10,800 1,620 Climbing Miami Center
09:37AM 27.0092 -79.5624 56° Northeast  Level FlightAware Approximate
09:37AM 26.8592 -79.9325 59° Northeast 234 269 12,800  Level Miami Center
09:38AM 27.0658 -79.4734 50° Northeast  Level FlightAware Approximate
09:39AM 26.8931 -79.8728 58° Northeast 234 269 14,200  Level Miami Center
09:40AM 26.9319 -79.8058 57° Northeast 241 277 15,900 1,440 Climbing Miami Center
09:41AM 26.9706 -79.7381 57° Northeast 244 281 17,200 1,260 Climbing Miami Center
09:42AM 27.0108 -79.6686 57° Northeast 250 288 18,500 1,200 Climbing Miami Center
09:43AM 27.0633 -79.6189 40° Northeast 257 296 19,800 1,200 Climbing Miami Center
09:44AM 27.1225 -79.5644 39° Northeast 261 300 21,000 1,080 Climbing Miami Center
09:45AM 27.1831 -79.5078 40° Northeast 267 307 22,100 1,020 Climbing Miami Center
09:46AM 27.2442 -79.4536 38° Northeast 269 310 23,200 960 Climbing Miami Center
09:47AM 27.3069 -79.3969 39° Northeast 274 315 24,100 780 Climbing Miami Center
09:48AM 27.3681 -79.3442 37° Northeast 283 326 24,900 720 Climbing Miami Center
09:49AM 27.4328 -79.2867 38° Northeast 283 326 25,700 720 Climbing Miami Center
09:50AM 27.4986 -79.2272 39° Northeast 286 329 26,400 660 Climbing Miami Center
09:51AM 27.5667 -79.1692 37° Northeast 293 337 27,100 660 Climbing Miami Center
09:52AM 27.6408 -79.1164 32° Northeast 301 346 27,800 660 Climbing Miami Center
09:53AM 27.7161 -79.0814 22° Northeast 301 346 28,500 600 Climbing Miami Center
09:54AM 27.7964 -79.0400 25° Northeast 305 351 29,100 600 Climbing Miami Center
09:56AM 27.9226 -78.9664 28° Northeast  Level FlightAware Approximate
09:56AM 27.9469 -78.9661 28° Northeast 302 348 30,500  Level Miami Center
09:57AM 28.0244 -78.9306 22° Northeast 301 346 30,900 180 Climbing Miami Center
09:58AM 28.1047 -78.8900 24° Northeast 316 364 30,900  Level Miami Center
09:59AM 28.2042 -78.8425 23° Northeast 320 368 30,900  Level Miami Center
10:01AM 28.3850 -78.7939 North 343 395 30,900  Level Miami Center
10:02AM 28.4794 -78.7806 North 345 397 30,900  Level Miami Center
10:03AM 28.5739 -78.7669 North 344 396 30,900  Level Miami Center
10:04AM 28.6731 -78.7544 North 345 397 30,900  Level Miami Center
10:05AM 28.7842 -78.7369 North 344 396 30,900  Level Miami Center
10:06AM 28.8806 -78.7233 North 348 400 30,900  Level Miami Center
10:07AM 28.9753 -78.7019 11° North 348 400 30,900  Level Miami Center
10:08AM 29.0703 -78.6733 15° North 349 402 30,900  Level Miami Center
10:09AM 29.1653 -78.6478 13° North 349 402 30,900  Level Miami Center
10:10AM 29.2600 -78.6197 14° North 351 404 30,900  Level Miami Center
10:13AM 29.4711 -78.5606 14° North 353 406 30,900  Level Miami Center
10:14AM 29.5683 -78.5342 13° North 356 410 30,900  Level Miami Center
10:15AM 29.6653 -78.5069 14° North 357 411 30,900  Level Miami Center
10:16AM 29.7608 -78.4783 15° North 356 410 30,900  Level Miami Center
10:17AM 29.8600 -78.4656 North 358 412 30,900  Level Miami Center
10:18AM 29.9792 -78.4511 North 358 412 30,900  Level Miami Center
10:19AM 30.0647 -78.4403 North 358 412 30,900  Level Miami Center
10:20AM 30.1928 -78.4375 North 358 412 30,900  Level Jacksonville Center
10:21AM 30.2831 -78.4478 354° North 348 400 30,900  Level Jacksonville Center
10:23AM 30.4797 -78.4628 357° North 353 406 30,900  Level Jacksonville Center
10:24AM 30.5886 -78.4719 356° North 361 415 30,900  Level Jacksonville Center
10:25AM 30.6828 -78.4797 356° North 350 403 30,900  Level Jacksonville Center
10:26AM 30.7833 -78.4872 356° North 353 406 30,900  Level Jacksonville Center
10:27AM 30.8836 -78.4944 356° North 360 414 30,900  Level Jacksonville Center
10:28AM 30.9842 -78.5019 356° North 352 405 30,900  Level Jacksonville Center
10:29AM 31.0950 -78.5089 357° North 357 411 30,900  Level Jacksonville Center
10:30AM 31.1933 -78.5189 355° North 356 410 30,900  Level Jacksonville Center
10:31AM 31.2958 -78.5264 356° North 359 413 30,900  Level Jacksonville Center
10:32AM 31.3944 -78.5339 356° North 360 414 30,900  Level Jacksonville Center
10:33AM 31.4947 -78.5414 356° North 355 409 30,900  Level Jacksonville Center
10:35AM 31.6917 -78.5589 356° North 350 403 30,900  Level Jacksonville Center
10:37AM 31.8906 -78.5742 356° North 356 410 30,900  Level Jacksonville Center
10:38AM 31.9908 -78.5817 356° North 356 410 30,900  Level Jacksonville Center
10:39AM 32.0914 -78.5867 358° North 351 404 30,900  Level Jacksonville Center
10:40AM 32.1917 -78.5967 355° North 351 404 30,900  Level Jacksonville Center
10:41AM 32.2964 -78.6042 357° North 356 410 30,900  Level Jacksonville Center
10:42AM 32.3969 -78.6117 356° North 361 415 30,900  Level Jacksonville Center
10:43AM 32.4972 -78.6192 356° North 361 415 30,900  Level Jacksonville Center
10:44AM 32.5997 -78.6267 356° North 366 421 30,900  Level Jacksonville Center
10:45AM 32.7003 -78.6344 356° North 366 421 30,900  Level Jacksonville Center
10:46AM 32.8028 -78.6419 356° North 366 421 30,900  Level Jacksonville Center
10:47AM 32.8844 -78.6503 355° North 366 421 30,900  Level Jacksonville Center
10:48AM 32.9911 -78.6578 357° North 366 421 30,900  Level Jacksonville Center
10:49AM 33.0917 -78.6653 356° North 366 421 30,900  Level Jacksonville Center
10:50AM 33.1922 -78.6756 355° North 366 421 30,900  Level Jacksonville Center
10:51AM 33.2903 -78.6808 357° North 361 415 30,900  Level Jacksonville Center
10:52AM 33.3908 -78.6933 354° North 361 415 30,900  Level Jacksonville Center
10:53AM 33.4914 -78.7011 356° North 361 415 30,900  Level Jacksonville Center
10:54AM 33.5883 -78.6717 14° North 354 407 30,900  Level Jacksonville Center
10:55AM 33.6853 -78.6369 17° North 359 413 30,900  Level Jacksonville Center
10:57AM 33.8775 -78.5933 11° North 352 405 30,900  Level Washington Center
10:58AM 33.9761 -78.5744 North 352 405 30,900  Level Washington Center
11:00AM 34.1817 -78.5342 12° North 352 405 30,900  Level Washington Center
11:01AM 34.2800 -78.5150 North 352 405 30,900  Level Washington Center
11:02AM 34.3767 -78.4958 North 352 405 30,900  Level Washington Center
11:03AM 34.4750 -78.4764 North 352 405 30,900  Level Washington Center
11:04AM 34.5758 -78.4497 12° North 358 412 30,900  Level Washington Center
11:05AM 34.6703 -78.4303 10° North 358 412 30,900  Level Washington Center
11:06AM 34.7708 -78.4136 North 353 406 30,900  Level Washington Center
11:07AM 34.8653 -78.3917 11° North 353 406 30,900  Level Washington Center
11:08AM 34.9636 -78.3697 10° North 353 406 30,900  Level Washington Center
11:09AM 35.0622 -78.3503 North 353 406 30,900  Level Washington Center
11:10AM 35.1611 -78.3206 14° North 353 406 30,900  Level Washington Center
11:11AM 35.2558 -78.2806 19° North 358 412 30,900  Level Washington Center
11:12AM 35.3569 -78.2381 19° North 368 423 30,900  Level Washington Center
11:13AM 35.4539 -78.1981 19° North 368 423 30,900  Level Washington Center
11:14AM 35.5422 -78.1600 19° North 368 423 30,900  Level Washington Center
11:15AM 35.6411 -78.1222 17° North 368 423 30,900  Level Washington Center
11:16AM 35.7400 -78.0794 19° North 368 423 30,900  Level Washington Center
11:18AM 35.9378 -77.9983 20° North 368 423 30,900  Level Washington Center
11:19AM 36.0367 -77.9578 18° North 368 423 30,900 -240 Level Washington Center
11:20AM 36.1378 -77.9144 19° North 368 423 30,500 -720 Descending Washington Center
11:22AM 36.3481 -77.8278 18° North 386 444 28,800 -960 Descending Washington Center
11:23AM 36.4553 -77.7844 18° North 392 451 27,800 -780 Descending Washington Center
11:24AM 36.5625 -77.7358 20° North 398 458 27,300 -300 Descending Washington Center
11:26AM 36.7742 -77.6897 10° North 385 443 27,000 -180 Descending Washington Center
11:27AM 36.8911 -77.6719 North 385 443 26,900 -360 Descending Washington Center
11:28AM 36.9833 -77.6536 North 385 443 26,400 -780 Descending Washington Center
11:29AM 37.1047 -77.6336 North 391 450 25,400 -960 Descending Washington Center
11:30AM 37.2031 -77.6153 North 391 450 24,500 -1,020 Descending Washington Center
11:31AM 37.3222 -77.5950 North 391 450 23,400 -1,020 Descending Washington Center
11:32AM 37.4100 -77.5789 North 379 436 22,500 -1,320 Descending Washington Center
11:33AM 37.5211 -77.5583 North 369 425 20,800 -1,740 Descending Washington Center
11:34AM 37.6108 -77.5450 North 369 425 19,000 -1,860 Descending Washington Center
11:35AM 37.7175 -77.5239 North 357 411 17,200 -1,740 Descending Washington Center
11:36AM 37.8014 -77.5078 North 349 402 15,600 -1,740 Descending Washington Center
11:37AM 37.8997 -77.4917 North 337 388 13,800 -1,680 Descending Washington Center
11:38AM 37.9792 -77.4753 North 327 376 12,300 -1,620 Descending Washington Center
11:39AM 38.0753 -77.4672 North 320 368 10,700 -1,200 Descending Washington Center
11:40AM 38.1567 -77.4533 North 307 353 10,000 -420 Descending Washington Center
11:41AM 38.2383 -77.4369 North 302 348 9,900 -60 Descending Washington Center
11:42AM 38.3200 -77.4203 North 296 341 9,900 -180 Level Washington Center
11:43AM 38.4014 -77.4039 North 291 335 9,600 -900 Descending Washington Center
11:45AM 38.5625 -77.3733 North 291 335 7,200 -1,920 Descending Washington Center
11:47AM 38.6500 -77.4667 320° Northwest 194 223 2,200 -2,160 Descending Potomac TRACON
11:48AM 38.6833 -77.4833 339° North 135 155 1,000 -1,200 Descending Potomac TRACON
11:50AM 38.7167 -77.5000 322° Northwest  Level FlightAware Approximate
11:57AM 38.7210 -77.5151 322° Northwest  Level Estimated
11:58AM 38.7210 -77.5151 322° Northwest  Level Estimated